createdAt,value
2022-10-06T00:01:09.734Z,17.58
2022-10-06T00:08:11.535Z,17.58
2022-10-06T00:15:14.311Z,17.54
2022-10-06T00:22:15.857Z,17.62
2022-10-06T00:29:18.731Z,17.58
2022-10-06T00:36:21.082Z,17.51
2022-10-06T00:43:52.120Z,17.45
2022-10-06T00:50:54.122Z,17.56
2022-10-06T00:57:55.701Z,17.59
2022-10-06T01:04:58.136Z,17.68
2022-10-06T01:12:00.938Z,17.77
2022-10-06T01:19:04.919Z,17.80
2022-10-06T01:26:08.298Z,17.87
2022-10-06T01:33:09.958Z,17.91
2022-10-06T01:40:11.755Z,17.88
2022-10-06T01:47:13.579Z,17.99
2022-10-06T01:54:15.229Z,17.85
2022-10-06T02:01:16.977Z,17.88
2022-10-06T02:08:18.660Z,17.92
2022-10-06T02:15:21.827Z,17.82
2022-10-06T02:22:23.506Z,17.80
2022-10-06T02:29:26.037Z,17.79
2022-10-06T02:36:27.962Z,17.74
2022-10-06T02:43:31.536Z,17.78
2022-10-06T02:50:35.586Z,17.77
2022-10-06T02:57:37.437Z,17.77
2022-10-06T03:04:39.271Z,17.71
2022-10-06T03:11:42.643Z,17.69
2022-10-06T03:18:49.310Z,17.76
2022-10-06T03:25:57.611Z,17.81
2022-10-06T03:33:01.698Z,17.79
2022-10-06T03:40:04.028Z,17.74
2022-10-06T03:47:05.776Z,17.83
2022-10-06T03:54:12.324Z,17.80
2022-10-06T04:01:21.025Z,17.82
2022-10-06T04:08:26.112Z,17.88
2022-10-06T04:15:28.289Z,17.92
2022-10-06T04:22:29.961Z,17.85
2022-10-06T04:29:31.668Z,17.88
2022-10-06T04:36:35.378Z,17.85
2022-10-06T04:43:37.057Z,17.84
2022-10-06T04:50:38.719Z,17.93
2022-10-06T04:57:46.661Z,17.90
2022-10-06T05:04:48.681Z,17.84
2022-10-06T05:11:51.534Z,17.92
2022-10-06T05:18:55.553Z,17.97
2022-10-06T05:25:57.796Z,17.96
2022-10-06T05:32:59.519Z,17.86
2022-10-06T05:40:01.257Z,17.69
2022-10-06T05:47:03.535Z,17.79
2022-10-06T05:54:05.696Z,17.87
2022-10-06T06:01:31.251Z,17.78
2022-10-06T06:08:33.655Z,17.72
2022-10-06T06:15:54.435Z,17.56
2022-10-06T06:22:56.122Z,17.57
2022-10-06T06:30:01.215Z,17.56
2022-10-06T06:37:07.662Z,17.52
2022-10-06T06:44:12.011Z,17.45
2022-10-06T06:51:19.159Z,17.54
2022-10-06T06:58:20.970Z,17.66
2022-10-06T07:05:22.968Z,17.68
2022-10-06T07:12:25.305Z,17.71
2022-10-06T07:19:47.420Z,17.86
2022-10-06T07:26:49.632Z,18.08
2022-10-06T07:33:51.271Z,18.40
2022-10-06T07:48:21.326Z,18.76
2022-10-06T07:55:29.067Z,18.75
2022-10-06T08:02:42.336Z,19.23
2022-10-06T08:09:43.966Z,19.43
2022-10-06T08:16:45.929Z,19.70
2022-10-06T08:23:49.544Z,19.83
2022-10-06T08:30:52.333Z,20.32
2022-10-06T08:37:53.909Z,20.66
2022-10-06T08:45:00.268Z,20.97
2022-10-06T08:52:59.274Z,20.46
2022-10-06T09:00:01.291Z,20.54
2022-10-06T09:07:11.378Z,21.23
2022-10-06T09:14:17.864Z,21.76
2022-10-06T09:21:23.469Z,22.17
2022-10-06T09:28:25.338Z,22.38
2022-10-06T09:35:28.343Z,22.59
2022-10-06T09:42:32.714Z,22.55
2022-10-06T09:49:34.302Z,22.71
2022-10-06T09:56:39.775Z,22.46
2022-10-06T10:04:15.415Z,23.02
2022-10-06T10:11:40.239Z,22.93
2022-10-06T10:18:46.067Z,23.63
2022-10-06T10:26:05.409Z,24.59
2022-10-06T10:33:17.300Z,25.21
2022-10-06T10:40:24.712Z,26.49
2022-10-06T10:47:35.447Z,26.24
2022-10-06T10:54:42.024Z,26.32
2022-10-06T11:01:55.836Z,26.55
2022-10-06T11:09:05.349Z,26.33
2022-10-06T11:16:29.619Z,25.52
2022-10-06T11:23:40.545Z,26.88
2022-10-06T11:30:55.622Z,26.57
2022-10-06T11:38:00.232Z,25.60
2022-10-06T11:45:13.740Z,25.83
2022-10-06T11:52:15.215Z,26.58
2022-10-06T11:59:31.246Z,27.45
2022-10-06T12:06:42.041Z,28.47
2022-10-06T12:21:25.612Z,29.26
2022-10-06T12:28:30.070Z,29.17
2022-10-06T12:35:39.904Z,28.45
2022-10-06T12:42:42.216Z,28.53
2022-10-06T12:49:54.958Z,28.64
2022-10-06T12:57:28.491Z,28.25
2022-10-06T13:04:40.889Z,28.90
2022-10-06T13:11:42.500Z,28.88
2022-10-06T13:18:44.053Z,28.22
2022-10-06T13:25:47.967Z,27.39
2022-10-06T13:32:52.661Z,26.64
2022-10-06T13:39:54.217Z,25.72
2022-10-06T13:46:58.282Z,24.67
2022-10-06T13:54:20.833Z,23.87
2022-10-06T14:01:30.010Z,23.34
2022-10-06T14:08:31.624Z,22.97
2022-10-06T14:15:38.896Z,22.84
2022-10-06T14:22:40.586Z,22.72
2022-10-06T14:29:42.142Z,22.59
2022-10-06T14:36:45.473Z,22.20
2022-10-06T14:43:47.686Z,22.07
2022-10-06T14:50:49.545Z,21.95
2022-10-06T14:57:51.275Z,21.91
2022-10-06T15:04:52.866Z,21.74
2022-10-06T15:11:54.580Z,21.56
2022-10-06T15:18:57.797Z,21.47
2022-10-06T15:26:17.904Z,21.35
2022-10-06T15:33:20.536Z,21.14
2022-10-06T15:40:22.089Z,21.06
2022-10-06T15:47:24.711Z,21.02
2022-10-06T15:54:27.537Z,20.88
2022-10-06T16:01:43.339Z,20.77
2022-10-06T16:08:45.043Z,20.60
2022-10-06T16:15:53.060Z,20.49
2022-10-06T16:22:54.941Z,20.45
2022-10-06T16:29:56.568Z,20.41
2022-10-06T16:36:58.353Z,20.30
2022-10-06T16:43:59.940Z,20.21
2022-10-06T16:51:08.896Z,20.08
2022-10-06T16:58:10.483Z,19.97
2022-10-06T17:05:12.053Z,19.84
2022-10-06T17:12:13.594Z,19.70
2022-10-06T17:19:16.406Z,19.65
2022-10-06T17:26:19.483Z,19.56
2022-10-06T17:33:21.076Z,19.46
2022-10-06T17:40:22.685Z,19.40
2022-10-06T17:47:24.253Z,19.25
2022-10-06T17:54:26.958Z,19.19
2022-10-06T18:01:29.242Z,19.05
2022-10-06T18:08:34.146Z,18.94
2022-10-06T18:15:37.011Z,18.79
2022-10-06T18:22:38.860Z,18.63
2022-10-06T18:29:40.686Z,18.55
2022-10-06T18:36:42.323Z,18.44
2022-10-06T18:43:44.042Z,18.33
2022-10-06T18:50:45.662Z,18.21
2022-10-06T18:57:48.030Z,18.09
2022-10-06T19:04:49.624Z,17.95
2022-10-06T19:11:53.031Z,17.80
2022-10-06T19:18:54.819Z,17.72
2022-10-06T19:25:59.718Z,17.59
2022-10-06T19:33:01.281Z,17.42
2022-10-06T19:40:02.920Z,17.28
2022-10-06T19:47:06.881Z,17.16
2022-10-06T19:54:11.401Z,17.08
2022-10-06T20:01:13.134Z,16.98
2022-10-06T20:08:14.718Z,16.90
2022-10-06T20:15:16.347Z,16.78
2022-10-06T20:22:17.892Z,16.66
2022-10-06T20:29:28.871Z,16.58
2022-10-06T20:36:30.818Z,16.48
2022-10-06T20:43:33.459Z,16.34
2022-10-06T20:50:35.085Z,16.28
2022-10-06T20:57:36.807Z,16.19
2022-10-06T21:04:40.918Z,16.11
2022-10-06T21:11:43.083Z,16.01
2022-10-06T21:18:44.980Z,15.97
2022-10-06T21:25:46.655Z,15.92
2022-10-06T21:32:48.435Z,15.87
2022-10-06T21:39:50.073Z,15.79
2022-10-06T21:46:53.185Z,15.68
2022-10-06T21:53:56.789Z,15.59
2022-10-06T22:01:02.307Z,15.49
2022-10-06T22:08:03.936Z,15.41
2022-10-06T22:15:06.115Z,15.32
2022-10-06T22:22:07.731Z,15.23
2022-10-06T22:29:11.393Z,15.13
2022-10-06T22:36:13.533Z,15.05
2022-10-06T22:43:15.132Z,14.97
2022-10-06T22:50:16.767Z,14.84
2022-10-06T22:57:18.374Z,14.78
2022-10-06T23:04:20.035Z,14.70
2022-10-06T23:11:22.266Z,14.63
2022-10-06T23:18:23.874Z,14.57
2022-10-06T23:25:27.394Z,14.49
2022-10-06T23:32:29.113Z,14.43
2022-10-06T23:39:30.718Z,14.36
2022-10-06T23:46:32.358Z,14.27
2022-10-06T23:53:34.005Z,14.14
